Time;durP1;ratioP1;P1;durP2;ratioP2;P2;SDS_P1;SDS_P2;PMS_P1;PMS_P2;Temp;Humidity;BMP_temperature;BMP_pressure;BME280_temperature;BME280_humidity;BME280_pressure;Samples;Min_cycle;Max_cycle;Signal;HPM_P1;HPM_P2
2022/06/21 00:01:32;;;;;;;7.70;3.03;;;11.20;99.90;;;;;;5073844;28;20051;-49
2022/06/21 00:03:58;;;;;;;7.07;2.55;;;11.20;99.90;;;;;;5073302;28;20040;-50
2022/06/21 00:06:25;;;;;;;5.10;2.13;;;11.10;99.90;;;;;;5073544;28;20483;-46
2022/06/21 00:08:52;;;;;;;7.05;2.47;;;11.10;99.90;;;;;;5073230;28;20398;-47
2022/06/21 00:11:27;;;;;;;3.60;2.10;;;11.00;99.90;;;;;;5073379;28;20123;-51
2022/06/21 00:13:53;;;;;;;7.97;2.97;;;11.00;99.90;;;;;;5073267;28;20064;-51
2022/06/21 00:16:19;;;;;;;5.78;2.28;;;11.00;99.90;;;;;;5073179;28;20044;-48
2022/06/21 00:18:46;;;;;;;7.35;2.83;;;11.00;99.90;;;;;;5073088;28;20529;-48
2022/06/21 00:21:24;;;;;;;4.75;2.00;;;11.00;99.90;;;;;;5073306;28;20052;-49
2022/06/21 00:23:51;;;;;;;8.52;2.70;;;10.90;99.90;;;;;;5072762;28;20498;-48
2022/06/21 00:26:19;;;;;;;10.25;2.50;;;11.00;99.90;;;;;;5073099;28;20555;-49
2022/06/21 00:28:45;;;;;;;9.20;2.53;;;10.90;99.90;;;;;;5072991;28;20375;-48
2022/06/21 00:31:25;;;;;;;6.07;2.38;;;10.90;99.90;;;;;;5072857;28;20047;-49
2022/06/21 00:33:51;;;;;;;6.07;2.40;;;10.90;99.90;;;;;;5073189;28;20037;-50
2022/06/21 00:36:37;;;;;;;8.38;2.28;;;10.90;99.90;;;;;;5073033;28;20043;-48
2022/06/21 00:39:05;;;;;;;6.38;2.58;;;10.90;99.90;;;;;;5072847;28;20479;-48
2022/06/21 00:41:44;;;;;;;10.55;2.72;;;10.80;99.90;;;;;;5072746;28;20048;-49
2022/06/21 00:44:19;;;;;;;7.38;3.10;;;10.80;99.90;;;;;;5073102;28;20050;-48
2022/06/21 00:47:02;;;;;;;4.65;2.35;;;10.70;99.90;;;;;;5073112;28;20059;-48
2022/06/21 00:49:43;;;;;;;5.57;2.40;;;10.70;99.90;;;;;;5072866;28;20651;-47
2022/06/21 00:52:16;;;;;;;7.38;2.95;;;10.70;99.90;;;;;;5072795;28;20110;-47
2022/06/21 00:55:02;;;;;;;9.98;3.15;;;10.60;99.90;;;;;;5072920;28;20479;-49
2022/06/21 00:57:39;;;;;;;7.82;2.88;;;10.60;99.90;;;;;;5072810;28;20044;-48
2022/06/21 01:00:36;;;;;;;7.68;2.58;;;10.60;99.90;;;;;;5072819;28;20097;-47
2022/06/21 01:03:12;;;;;;;9.60;2.73;;;10.60;99.90;;;;;;5072661;28;20084;-51
2022/06/21 01:05:43;;;;;;;6.40;2.63;;;10.50;99.90;;;;;;5072729;28;20283;-51
2022/06/21 01:08:12;;;;;;;6.25;2.53;;;10.50;99.90;;;;;;5072822;28;20402;-52
2022/06/21 01:10:39;;;;;;;7.03;2.70;;;10.50;99.90;;;;;;5072508;28;20052;-50
2022/06/21 01:13:12;;;;;;;5.18;2.60;;;10.40;99.90;;;;;;5072632;28;20033;-50
2022/06/21 01:15:43;;;;;;;5.20;2.33;;;10.40;99.90;;;;;;5072780;28;20056;-49
2022/06/21 01:18:10;;;;;;;4.78;2.80;;;10.40;99.90;;;;;;5072634;28;20041;-48
2022/06/21 01:20:40;;;;;;;7.43;2.78;;;10.30;99.90;;;;;;5072513;28;20052;-50
2022/06/21 01:23:34;;;;;;;10.88;2.58;;;10.30;99.90;;;;;;5072351;28;20036;-47
2022/06/21 01:26:40;;;;;;;6.85;2.75;;;10.30;99.90;;;;;;5072652;28;20063;-49
2022/06/21 01:29:09;;;;;;;9.57;2.67;;;10.30;99.90;;;;;;5066583;28;20056;-52
2022/06/21 01:31:35;;;;;;;4.75;2.80;;;10.20;99.90;;;;;;5072231;28;20075;-52
2022/06/21 01:34:00;;;;;;;7.45;3.03;;;10.20;99.90;;;;;;5072917;28;20068;-52
2022/06/21 01:36:36;;;;;;;9.10;2.60;;;10.10;99.90;;;;;;5076323;28;20041;-49
2022/06/21 01:39:07;;;;;;;5.95;2.88;;;10.10;99.90;;;;;;5076038;28;20380;-50
2022/06/21 01:41:57;;;;;;;3.70;2.30;;;10.10;99.90;;;;;;5076363;28;20048;-48
2022/06/21 01:44:29;;;;;;;6.60;2.58;;;10.10;99.90;;;;;;5069035;28;20490;-52
2022/06/21 01:46:56;;;;;;;7.85;3.08;;;10.10;99.90;;;;;;5076295;28;20068;-49
2022/06/21 01:49:25;;;;;;;5.70;3.10;;;10.10;99.90;;;;;;5075992;28;20506;-48
2022/06/21 01:52:01;;;;;;;8.80;3.25;;;10.10;99.90;;;;;;5058151;28;20048;-53
2022/06/21 01:54:33;;;;;;;8.18;2.80;;;10.00;99.90;;;;;;5075911;28;20055;-49
2022/06/21 01:56:59;;;;;;;7.63;3.03;;;10.00;99.90;;;;;;5076048;28;20071;-53
2022/06/21 01:59:32;;;;;;;4.82;2.80;;;10.00;99.90;;;;;;5075937;28;20045;-48
2022/06/21 02:02:20;;;;;;;6.13;3.30;;;9.90;99.90;;;;;;5075889;28;20045;-49
2022/06/21 02:04:53;;;;;;;8.02;3.15;;;10.00;99.90;;;;;;5075597;28;20037;-51
2022/06/21 02:07:23;;;;;;;6.28;3.47;;;9.90;99.90;;;;;;5075843;28;20124;-48
2022/06/21 02:10:03;;;;;;;10.00;3.30;;;9.90;99.90;;;;;;5075763;28;20049;-50
2022/06/21 02:12:30;;;;;;;6.30;2.80;;;9.90;99.90;;;;;;5075420;28;20513;-52
2022/06/21 02:14:57;;;;;;;4.65;3.05;;;9.90;99.90;;;;;;5076072;28;20044;-50
2022/06/21 02:17:34;;;;;;;5.85;3.10;;;9.90;99.90;;;;;;5075741;28;20037;-49
2022/06/21 02:20:05;;;;;;;10.60;3.40;;;9.90;99.90;;;;;;5075742;28;20119;-49
2022/06/21 02:22:33;;;;;;;8.95;3.25;;;9.90;99.90;;;;;;5075601;28;20060;-50
2022/06/21 02:25:00;;;;;;;8.05;3.63;;;9.90;99.90;;;;;;5075453;28;20040;-47
2022/06/21 02:27:30;;;;;;;7.57;3.60;;;9.90;99.90;;;;;;5075370;28;20045;-48
2022/06/21 02:29:59;;;;;;;9.50;3.53;;;9.90;99.90;;;;;;5075229;28;20643;-50
2022/06/21 02:32:28;;;;;;;7.18;3.70;;;9.90;99.90;;;;;;5075311;28;20055;-48
2022/06/21 02:35:06;;;;;;;7.18;3.35;;;9.80;99.90;;;;;;5074136;28;20518;-53
2022/06/21 02:37:33;;;;;;;10.13;3.78;;;9.80;99.90;;;;;;5075411;28;20049;-50
2022/06/21 02:40:00;;;;;;;8.27;3.85;;;;;;;;;;5075168;28;20036;-48
2022/06/21 02:42:32;;;;;;;7.30;3.10;;;9.70;99.90;;;;;;5074087;28;20049;-50
2022/06/21 02:45:07;;;;;;;7.07;3.35;;;9.70;99.90;;;;;;5075020;28;20116;-49
2022/06/21 02:47:40;;;;;;;8.40;3.85;;;9.60;99.90;;;;;;5075100;28;20066;-52
2022/06/21 02:50:44;;;;;;;8.82;3.72;;;9.70;99.90;;;;;;5074971;28;20044;-52
2022/06/21 02:53:27;;;;;;;7.93;3.50;;;9.70;99.90;;;;;;5069782;28;20503;-48
2022/06/21 02:56:02;;;;;;;5.68;3.45;;;9.70;99.90;;;;;;5074840;28;20455;-49
2022/06/21 02:58:47;;;;;;;10.68;3.53;;;9.70;99.90;;;;;;5074877;28;20048;-48
2022/06/21 03:01:27;;;;;;;13.50;4.18;;;9.70;99.90;;;;;;5074805;28;20121;-48
2022/06/21 03:03:53;;;;;;;9.32;3.90;;;9.70;99.90;;;;;;5074841;28;20044;-48
2022/06/21 03:06:20;;;;;;;6.43;3.55;;;9.70;99.90;;;;;;5074767;28;20040;-49
2022/06/21 03:09:01;;;;;;;7.30;3.85;;;9.70;99.90;;;;;;5074862;28;20114;-48
2022/06/21 03:11:31;;;;;;;5.97;3.60;;;9.70;99.90;;;;;;5074959;28;20094;-48
2022/06/21 03:14:03;;;;;;;8.88;4.50;;;9.70;99.90;;;;;;5074619;28;20036;-50
2022/06/21 03:16:30;;;;;;;6.38;3.55;;;9.70;99.90;;;;;;5074640;28;20041;-50
2022/06/21 03:19:00;;;;;;;7.93;4.18;;;9.70;99.90;;;;;;5074365;28;20064;-49
2022/06/21 03:21:32;;;;;;;5.80;3.65;;;9.70;99.90;;;;;;5074452;28;20044;-52
2022/06/21 03:23:59;;;;;;;6.57;3.92;;;9.80;99.90;;;;;;5074221;28;20509;-50
2022/06/21 03:26:26;;;;;;;7.15;3.75;;;9.70;99.90;;;;;;5074082;28;20483;-50
2022/06/21 03:28:52;;;;;;;7.43;3.83;;;9.70;99.90;;;;;;5074299;28;20120;-51
2022/06/21 03:31:35;;;;;;;8.70;3.75;;;9.70;99.90;;;;;;5074170;28;20076;-48
2022/06/21 03:34:06;;;;;;;5.85;3.58;;;9.70;99.90;;;;;;5074148;28;20495;-51
2022/06/21 03:36:33;;;;;;;5.88;3.00;;;9.70;99.90;;;;;;5072757;28;20045;-48
2022/06/21 03:39:21;;;;;;;5.25;3.22;;;9.70;99.90;;;;;;5073909;28;20506;-51
2022/06/21 03:41:48;;;;;;;4.57;3.78;;;9.70;99.90;;;;;;5073923;28;20428;-51
2022/06/21 03:44:24;;;;;;;7.75;3.58;;;9.70;99.90;;;;;;5073985;28;20115;-49
2022/06/21 03:47:00;;;;;;;9.75;3.85;;;9.70;99.90;;;;;;5073894;28;20106;-50
2022/06/21 03:49:42;;;;;;;7.90;4.38;;;9.70;99.90;;;;;;5074109;28;20079;-49
2022/06/21 03:52:41;;;;;;;8.82;3.70;;;9.80;99.90;;;;;;5073600;28;20045;-48
2022/06/21 03:55:12;;;;;;;11.10;4.10;;;9.90;99.90;;;;;;5073431;28;20114;-49
2022/06/21 03:57:43;;;;;;;7.25;4.00;;;9.90;99.90;;;;;;5073058;28;20466;-49
2022/06/21 04:00:12;;;;;;;5.50;4.47;;;10.00;99.90;;;;;;5073674;28;20044;-51
2022/06/21 04:02:44;;;;;;;5.82;3.90;;;10.00;99.90;;;;;;5073637;28;20040;-52
2022/06/21 04:05:33;;;;;;;6.57;4.22;;;10.00;99.90;;;;;;5073704;28;20045;-52
2022/06/21 04:08:08;;;;;;;7.78;4.50;;;10.10;99.90;;;;;;5072119;28;20066;-53
2022/06/21 04:11:00;;;;;;;8.20;4.65;;;10.10;99.90;;;;;;5073546;28;20047;-50
2022/06/21 04:13:51;;;;;;;7.70;4.50;;;10.10;99.90;;;;;;5073281;28;20406;-49
2022/06/21 04:16:36;;;;;;;6.82;4.43;;;10.20;99.90;;;;;;5073241;28;20048;-48
2022/06/21 04:19:08;;;;;;;5.75;4.60;;;10.30;99.90;;;;;;5073364;28;20076;-47
2022/06/21 04:21:47;;;;;;;7.70;4.82;;;10.40;99.90;;;;;;5073307;28;20086;-49
2022/06/21 04:24:23;;;;;;;6.88;4.93;;;10.50;99.90;;;;;;5073249;28;20441;-49
2022/06/21 04:27:06;;;;;;;8.23;5.20;;;10.60;99.90;;;;;;5073286;28;20166;-48
2022/06/21 04:29:39;;;;;;;7.55;4.72;;;10.80;99.90;;;;;;5073266;28;20122;-48
2022/06/21 04:32:28;;;;;;;5.93;4.95;;;10.90;99.90;;;;;;5073105;28;20044;-49
2022/06/21 04:35:02;;;;;;;6.20;5.47;;;11.10;99.90;;;;;;5073121;28;20395;-49
2022/06/21 04:37:58;;;;;;;5.22;4.72;;;11.30;99.90;;;;;;5073089;28;20052;-47
2022/06/21 04:40:31;;;;;;;6.07;5.10;;;11.40;99.90;;;;;;5073096;28;20060;-47
2022/06/21 04:43:06;;;;;;;7.40;5.68;;;11.60;99.90;;;;;;5072989;28;20044;-48
2022/06/21 04:45:50;;;;;;;8.40;5.20;;;11.60;99.90;;;;;;5073142;28;20495;-49
2022/06/21 04:48:15;;;;;;;8.93;5.10;;;11.70;99.90;;;;;;5055270;28;20110;-50
2022/06/21 04:50:48;;;;;;;5.25;4.50;;;11.80;99.90;;;;;;5072827;28;20510;-49
2022/06/21 04:53:32;;;;;;;9.52;4.95;;;11.90;99.90;;;;;;5072681;28;20113;-50
2022/06/21 04:56:46;;;;;;;8.30;5.40;;;12.00;99.90;;;;;;5073010;28;20041;-48
2022/06/21 04:59:36;;;;;;;7.50;5.28;;;12.10;99.90;;;;;;5072828;28;20062;-52
2022/06/21 05:02:04;;;;;;;6.47;4.93;;;12.10;99.90;;;;;;5072669;28;20045;-50
2022/06/21 05:04:30;;;;;;;;;;;12.20;99.90;;;;;;5073357;28;20047;-50
2022/06/21 05:06:58;;;;;;;5.43;4.88;;;12.30;99.90;;;;;;5072965;28;19950;-53
2022/06/21 05:09:26;;;;;;;;;;;12.40;99.90;;;;;;5075789;28;20055;-53
2022/06/21 05:12:00;;;;;;;6.38;4.72;;;12.40;99.90;;;;;;5076829;28;19999;-50
2022/06/21 05:14:39;;;;;;;5.90;4.15;;;12.50;99.90;;;;;;5076881;28;20080;-53
2022/06/21 05:17:09;;;;;;;6.55;3.80;;;12.50;99.90;;;;;;5076844;28;20052;-52
2022/06/21 05:19:39;;;;;;;5.97;4.70;;;12.60;99.90;;;;;;5076839;28;20048;-53
2022/06/21 05:22:29;;;;;;;7.35;4.78;;;12.60;99.90;;;;;;5076700;28;20094;-52
2022/06/21 05:24:57;;;;;;;6.75;4.57;;;12.70;99.90;;;;;;5076582;28;20048;-49
2022/06/21 05:27:29;;;;;;;7.60;4.65;;;12.80;99.90;;;;;;5076679;28;20041;-51
2022/06/21 05:30:38;;;;;;;7.47;4.53;;;12.80;99.90;;;;;;5076587;28;20053;-48
2022/06/21 05:33:11;;;;;;;8.13;5.10;;;12.90;99.90;;;;;;5076255;28;20099;-47
2022/06/21 05:35:37;;;;;;;5.70;4.30;;;12.90;99.90;;;;;;5076519;28;20044;-50
2022/06/21 05:38:16;;;;;;;9.18;4.40;;;13.10;99.90;;;;;;5076403;28;20052;-48
2022/06/21 05:40:54;;;;;;;7.88;4.13;;;13.20;99.90;;;;;;5076263;28;20048;-50
2022/06/21 05:43:26;;;;;;;8.60;4.55;;;13.20;99.90;;;;;;5076243;28;20072;-49
2022/06/21 05:45:59;;;;;;;8.63;4.40;;;13.20;99.90;;;;;;5076264;28;20059;-50
2022/06/21 05:48:30;;;;;;;9.85;4.40;;;13.30;99.90;;;;;;5076259;28;20055;-49
2022/06/21 05:50:56;;;;;;;9.98;4.20;;;13.40;99.90;;;;;;5076206;28;20045;-51
2022/06/21 05:53:53;;;;;;;7.25;3.80;;;13.40;99.90;;;;;;5075655;28;20049;-48
2022/06/21 05:56:22;;;;;;;9.95;4.05;;;13.50;99.90;;;;;;5075659;28;20491;-49
2022/06/21 05:59:03;;;;;;;6.20;3.78;;;14.00;99.90;;;;;;5076027;28;20070;-51
2022/06/21 06:01:37;;;;;;;8.82;3.88;;;14.00;99.90;;;;;;5075968;28;20411;-48
2022/06/21 06:04:31;;;;;;;7.80;3.97;;;14.40;99.90;;;;;;5075863;28;20076;-49
2022/06/21 06:06:58;;;;;;;6.75;4.20;;;14.90;99.90;;;;;;5072821;28;20113;-51
2022/06/21 06:09:28;;;;;;;6.43;3.92;;;16.30;99.90;;;;;;5075859;28;20533;-51
2022/06/21 06:12:04;;;;;;;11.10;3.95;;;18.00;99.90;;;;;;5075562;28;20499;-53
2022/06/21 06:14:43;;;;;;;9.02;3.65;;;20.40;99.90;;;;;;5074431;28;20044;-50
2022/06/21 06:17:33;;;;;;;6.55;2.95;;;20.90;99.90;;;;;;5075779;28;20048;-52
2022/06/21 06:20:31;;;;;;;5.88;1.77;;;22.10;99.90;;;;;;5074822;28;20055;-50
2022/06/21 06:23:25;;;;;;;8.60;2.10;;;22.80;99.90;;;;;;5074484;28;20387;-48
2022/06/21 06:26:19;;;;;;;4.63;2.08;;;23.80;99.90;;;;;;5075595;28;20074;-52
2022/06/21 06:28:56;;;;;;;5.00;1.88;;;23.20;96.80;;;;;;5075222;28;20399;-49
2022/06/21 06:31:30;;;;;;;7.93;2.17;;;21.60;98.00;;;;;;5075291;28;20189;-50
2022/06/21 06:34:01;;;;;;;7.65;1.70;;;20.30;98.20;;;;;;5075362;28;20048;-50
2022/06/21 06:36:36;;;;;;;4.38;1.50;;;20.40;99.20;;;;;;5075397;28;20037;-48
2022/06/21 06:39:04;;;;;;;5.63;1.27;;;;;;;;;;5074834;28;20053;-51
2022/06/21 06:41:45;;;;;;;5.03;1.15;;;22.60;97.90;;;;;;5074442;28;20394;-51
2022/06/21 06:44:14;;;;;;;5.10;1.30;;;22.70;96.60;;;;;;5074526;28;20044;-49
2022/06/21 06:46:46;;;;;;;5.40;1.30;;;23.70;97.60;;;;;;5074599;28;20116;-50
2022/06/21 06:49:20;;;;;;;4.20;1.27;;;24.10;93.50;;;;;;5074412;28;20037;-50
2022/06/21 06:51:52;;;;;;;3.88;1.42;;;24.90;93.30;;;;;;5074296;28;20084;-50
2022/06/21 06:54:30;;;;;;;7.75;1.63;;;25.10;93.40;;;;;;5074251;28;20051;-51
2022/06/21 06:57:20;;;;;;;4.05;1.73;;;25.40;92.30;;;;;;5073201;28;20467;-51
2022/06/21 06:59:47;;;;;;;5.80;1.80;;;25.50;90.50;;;;;;5074180;28;20044;-50
2022/06/21 07:02:15;;;;;;;3.80;1.60;;;25.90;90.40;;;;;;5074244;28;20541;-52
2022/06/21 07:04:45;;;;;;;4.60;1.38;;;26.20;88.00;;;;;;5074173;28;20040;-53
2022/06/21 07:07:20;;;;;;;5.60;1.55;;;26.50;82.70;;;;;;5074444;28;20048;-49
2022/06/21 07:09:53;;;;;;;5.45;1.80;;;26.00;83.60;;;;;;5073728;28;20175;-48
2022/06/21 07:12:23;;;;;;;7.57;1.90;;;26.40;84.90;;;;;;5073360;28;20037;-50
2022/06/21 07:14:50;;;;;;;3.65;1.48;;;26.10;78.80;;;;;;5073401;28;20079;-50
2022/06/21 07:17:22;;;;;;;4.68;1.60;;;26.50;82.10;;;;;;5073222;28;20040;-48
2022/06/21 07:19:48;;;;;;;3.22;1.35;;;26.80;80.10;;;;;;5073292;28;20467;-48
2022/06/21 07:22:21;;;;;;;5.07;1.50;;;26.50;79.90;;;;;;5073404;28;20048;-50
2022/06/21 07:24:59;;;;;;;7.88;1.80;;;26.10;78.10;;;;;;5073362;28;20492;-50
2022/06/21 07:27:27;;;;;;;5.57;1.85;;;25.70;78.70;;;;;;5073627;28;20087;-52
2022/06/21 07:30:00;;;;;;;3.13;1.58;;;25.10;78.30;;;;;;5073406;28;20049;-50
2022/06/21 07:32:34;;;;;;;3.92;1.60;;;24.80;80.70;;;;;;5072359;28;20452;-52
2022/06/21 07:35:09;;;;;;;6.22;2.22;;;24.60;80.50;;;;;;5073437;28;20119;-52
2022/06/21 07:37:52;;;;;;;3.50;1.60;;;23.90;80.10;;;;;;5073129;28;20440;-49
2022/06/21 07:40:42;;;;;;;4.75;1.60;;;24.80;80.20;;;;;;5073073;28;20043;-51
2022/06/21 07:43:35;;;;;;;7.22;1.70;;;24.70;78.30;;;;;;5073044;28;20044;-50
2022/06/21 07:46:03;;;;;;;6.53;1.67;;;24.20;79.70;;;;;;5072542;28;20419;-52
2022/06/21 07:48:53;;;;;;;6.30;1.73;;;23.60;79.70;;;;;;5072605;28;20041;-51
2022/06/21 07:51:26;;;;;;;3.35;1.40;;;22.90;81.50;;;;;;5072908;28;20767;-51
2022/06/21 07:54:04;;;;;;;5.20;1.60;;;22.00;81.20;;;;;;5072641;28;20116;-49
2022/06/21 07:56:40;;;;;;;5.55;1.80;;;21.30;85.00;;;;;;5072627;28;20044;-48
2022/06/21 07:59:17;;;;;;;2.70;1.55;;;21.70;89.50;;;;;;5072423;28;20048;-49
2022/06/21 08:07:53;;;;;;;5.85;1.60;;;20.60;89.50;;;;;;5073745;28;20128;-48
2022/06/21 08:10:27;;;;;;;3.60;1.40;;;20.80;89.40;;;;;;5073825;28;20055;-52
2022/06/21 08:12:55;;;;;;;3.45;1.30;;;20.80;89.70;;;;;;5073436;28;20048;-49
2022/06/21 08:15:25;;;;;;;2.72;1.30;;;20.80;90.20;;;;;;5073308;28;20052;-53
2022/06/21 08:17:59;;;;;;;2.28;1.17;;;20.70;90.00;;;;;;5073211;28;20052;-49
2022/06/21 08:20:38;;;;;;;4.57;1.35;;;20.60;88.50;;;;;;5073473;28;20170;-50
2022/06/21 08:23:14;;;;;;;6.45;1.67;;;20.10;90.50;;;;;;5073336;28;20059;-52
2022/06/21 08:25:55;;;;;;;3.85;1.58;;;20.20;90.70;;;;;;5073425;28;20055;-53
2022/06/21 08:28:28;;;;;;;6.22;1.30;;;20.50;91.80;;;;;;5073222;28;20094;-48
2022/06/21 08:30:57;;;;;;;3.30;1.42;;;20.20;90.70;;;;;;5073405;28;20055;-49
2022/06/21 08:33:22;;;;;;;5.75;1.60;;;19.80;91.00;;;;;;5073226;28;20040;-53
2022/06/21 08:35:54;;;;;;;4.38;1.58;;;20.10;92.40;;;;;;5073243;28;20041;-52
2022/06/21 08:38:30;;;;;;;4.68;1.50;;;19.90;92.70;;;;;;5073098;28;20048;-52
2022/06/21 08:41:09;;;;;;;4.82;1.67;;;20.30;92.90;;;;;;5073356;28;20048;-49
2022/06/21 08:44:15;;;;;;;4.50;1.60;;;19.70;92.50;;;;;;5072746;28;20429;-49
2022/06/21 08:46:52;;;;;;;3.03;1.52;;;20.30;93.50;;;;;;5073042;28;20121;-49
2022/06/21 08:49:45;;;;;;;4.65;1.55;;;19.90;92.40;;;;;;5073061;28;20045;-49
2022/06/21 08:52:14;;;;;;;4.47;1.20;;;20.10;93.00;;;;;;5072548;28;20052;-49
2022/06/21 08:54:57;;;;;;;4.70;1.27;;;20.30;92.20;;;;;;5072852;28;20135;-49
2022/06/21 08:57:45;;;;;;;4.00;1.63;;;20.70;93.30;;;;;;5072885;28;20040;-50
2022/06/21 09:00:18;;;;;;;4.32;1.10;;;20.50;91.70;;;;;;5072552;28;20113;-48
2022/06/21 09:03:11;;;;;;;3.30;1.27;;;20.90;91.70;;;;;;5072989;28;20041;-51
2022/06/21 09:06:04;;;;;;;5.57;1.85;;;21.30;90.80;;;;;;5072676;28;20044;-51
2022/06/21 09:08:52;;;;;;;2.17;1.27;;;21.50;91.90;;;;;;5071605;28;20060;-52
2022/06/21 09:11:39;;;;;;;3.15;1.50;;;21.20;91.10;;;;;;5073154;28;20040;-54
2022/06/21 09:14:12;;;;;;;5.10;1.35;;;21.30;91.80;;;;;;5072575;28;20102;-50
2022/06/21 09:16:50;;;;;;;5.47;1.65;;;21.50;91.10;;;;;;5072596;28;20052;-50
2022/06/21 09:19:28;;;;;;;4.82;1.45;;;21.40;91.10;;;;;;5072684;28;20548;-49
2022/06/21 09:22:26;;;;;;;3.30;1.83;;;21.80;90.70;;;;;;5072577;28;20048;-52
2022/06/21 09:25:12;;;;;;;3.13;1.48;;;22.00;91.40;;;;;;5065007;28;20048;-48
2022/06/21 09:27:43;;;;;;;5.20;1.63;;;21.70;90.10;;;;;;5072638;28;20051;-49
2022/06/21 09:30:29;;;;;;;2.22;1.52;;;21.70;90.40;;;;;;5072649;28;20049;-49
2022/06/21 09:33:38;;;;;;;3.37;1.70;;;21.50;90.90;;;;;;5072302;28;20540;-51
2022/06/21 09:36:03;;;;;;;4.97;1.48;;;21.40;91.00;;;;;;5050187;28;20072;-48
2022/06/21 09:38:47;;;;;;;5.15;1.55;;;21.60;91.80;;;;;;5050356;28;20072;-52
2022/06/21 09:41:28;;;;;;;4.72;1.70;;;21.90;90.00;;;;;;5049973;28;20088;-53
2022/06/21 09:43:53;;;;;;;4.75;1.75;;;22.10;88.20;;;;;;5050161;28;20125;-52
2022/06/21 09:46:34;;;;;;;4.72;1.50;;;22.20;90.00;;;;;;5050149;28;20120;-49
2022/06/21 09:49:43;;;;;;;4.25;1.50;;;22.30;87.80;;;;;;5050163;28;20052;-52
2022/06/21 09:52:31;;;;;;;3.47;1.50;;;22.50;89.50;;;;;;5049750;28;20048;-48
2022/06/21 09:55:11;;;;;;;;;;;22.80;88.10;;;;;;5050674;28;20052;-51
2022/06/21 09:57:51;;;;;;;4.25;1.73;;;22.90;87.00;;;;;;5053823;28;19920;-51
2022/06/21 10:00:33;;;;;;;5.32;1.67;;;23.10;87.50;;;;;;5053726;28;20057;-51
2022/06/21 10:03:24;;;;;;;3.38;1.77;;;23.30;86.10;;;;;;5053801;28;20173;-51
2022/06/21 10:06:05;;;;;;;4.85;1.63;;;23.20;86.60;;;;;;5055460;28;20048;-49
2022/06/21 10:08:55;;;;;;;5.07;1.60;;;23.40;84.80;;;;;;5075868;28;20060;-49
2022/06/21 10:11:43;;;;;;;5.38;2.38;;;23.40;83.40;;;;;;5074709;28;20085;-53
2022/06/21 10:14:46;;;;;;;4.00;2.03;;;23.40;84.50;;;;;;5075611;28;20041;-49
2022/06/21 10:17:21;;;;;;;4.65;1.88;;;23.20;83.30;;;;;;5075652;28;20128;-48
2022/06/21 10:20:37;;;;;;;3.70;1.88;;;23.30;83.20;;;;;;5075761;28;20041;-50
2022/06/21 10:23:22;;;;;;;3.03;1.60;;;22.70;82.30;;;;;;5053294;28;20088;-49
2022/06/21 10:26:15;;;;;;;2.67;1.65;;;22.50;85.80;;;;;;5036855;28;20394;-49
2022/06/21 10:28:59;;;;;;;2.45;1.35;;;22.70;86.20;;;;;;5053181;28;20630;-50
2022/06/21 10:31:46;;;;;;;4.30;1.50;;;23.10;86.80;;;;;;5053098;28;20124;-49
2022/06/21 10:34:22;;;;;;;;;;;23.20;85.10;;;;;;5053597;28;20232;-50
2022/06/21 10:37:08;;;;;;;3.58;1.50;;;23.00;80.70;;;;;;5053093;28;19920;-48
2022/06/21 10:40:06;;;;;;;4.38;1.85;;;22.70;83.40;;;;;;5053087;28;20060;-48
2022/06/21 10:43:08;;;;;;;4.07;1.58;;;22.90;83.90;;;;;;5052903;28;20041;-49
2022/06/21 10:45:35;;;;;;;8.18;1.90;;;22.30;83.30;;;;;;5052909;28;20102;-52
2022/06/21 10:48:31;;;;;;;5.00;2.08;;;22.70;83.40;;;;;;5036428;28;20119;-48
2022/06/21 10:51:27;;;;;;;4.18;1.73;;;23.00;83.30;;;;;;5052819;28;20053;-50
2022/06/21 10:54:05;;;;;;;4.40;1.88;;;23.20;85.70;;;;;;5052998;28;20041;-51
2022/06/21 10:57:16;;;;;;;4.90;1.83;;;23.10;82.20;;;;;;5052805;28;20123;-53
2022/06/21 11:03:11;;;;;;;2.78;1.85;;;22.20;83.40;;;;;;5074949;28;20137;-50
2022/06/21 11:05:49;;;;;;;5.30;2.30;;;21.70;86.80;;;;;;5074783;28;20055;-50
2022/06/21 11:08:46;;;;;;;4.05;1.73;;;22.30;86.10;;;;;;5074544;28;20080;-49
2022/06/21 11:11:27;;;;;;;5.13;2.20;;;22.30;86.20;;;;;;5074691;28;20056;-53
2022/06/21 11:14:24;;;;;;;3.92;1.85;;;22.20;87.40;;;;;;5074442;28;20545;-53
2022/06/21 11:16:53;;;;;;;5.70;2.10;;;22.10;87.70;;;;;;5074439;28;20040;-50
2022/06/21 11:20:03;;;;;;;5.65;2.60;;;22.00;88.60;;;;;;5074587;28;20059;-50
2022/06/21 11:22:49;;;;;;;3.58;1.75;;;22.10;88.40;;;;;;5065635;28;20052;-50
2022/06/21 11:25:36;;;;;;;3.50;1.63;;;21.80;86.30;;;;;;5072919;28;20052;-51
2022/06/21 11:28:31;;;;;;;4.57;2.00;;;21.60;86.40;;;;;;5074406;28;20051;-51
2022/06/21 11:31:23;;;;;;;4.13;1.80;;;21.50;86.30;;;;;;5074209;28;20283;-54
2022/06/21 11:34:15;;;;;;;5.72;2.10;;;21.90;87.80;;;;;;5074385;28;20055;-52
2022/06/21 11:37:12;;;;;;;4.47;1.90;;;21.90;85.40;;;;;;5074225;28;20082;-49
2022/06/21 11:40:33;;;;;;;5.37;2.30;;;22.10;86.50;;;;;;5062680;28;20487;-48
2022/06/21 11:43:02;;;;;;;5.18;2.13;;;22.50;87.80;;;;;;5051904;28;20052;-52
2022/06/21 11:45:40;;;;;;;2.40;1.65;;;22.20;85.30;;;;;;5051677;28;20048;-49
2022/06/21 11:48:11;;;;;;;4.57;2.25;;;22.60;85.00;;;;;;5051607;28;20475;-53
2022/06/21 11:51:10;;;;;;;4.43;2.10;;;22.30;83.20;;;;;;5051537;28;20047;-53
2022/06/21 11:53:56;;;;;;;4.20;1.83;;;22.40;83.40;;;;;;5051197;28;20167;-49
2022/06/21 11:56:44;;;;;;;2.95;1.65;;;22.80;83.70;;;;;;5051695;28;20053;-52
2022/06/21 11:59:33;;;;;;;5.05;1.90;;;22.40;81.60;;;;;;5051436;28;20424;-49
2022/06/21 12:02:35;;;;;;;4.03;1.77;;;22.80;83.50;;;;;;5051525;28;20128;-52
2022/06/21 12:05:16;;;;;;;4.65;1.63;;;23.00;82.70;;;;;;5051265;28;20590;-52
2022/06/21 12:08:23;;;;;;;4.43;1.55;;;23.20;81.60;;;;;;5051344;28;20107;-50
2022/06/21 12:10:56;;;;;;;3.60;1.60;;;23.00;79.40;;;;;;5051226;28;20106;-52
2022/06/21 12:13:52;;;;;;;4.82;2.00;;;22.80;79.60;;;;;;5061365;28;20424;-51
2022/06/21 12:16:42;;;;;;;4.25;1.40;;;22.40;79.60;;;;;;5073507;28;20406;-51
2022/06/21 12:19:16;;;;;;;3.67;1.50;;;22.40;79.70;;;;;;5072689;28;20102;-49
2022/06/21 12:21:52;;;;;;;3.97;1.83;;;22.20;77.30;;;;;;5073330;28;20048;-50
2022/06/21 12:24:22;;;;;;;4.38;1.50;;;22.40;80.00;;;;;;5073355;28;20123;-50
2022/06/21 12:26:47;;;;;;;3.50;1.48;;;22.40;80.30;;;;;;5073192;28;20075;-52
2022/06/21 12:29:20;;;;;;;3.58;1.13;;;22.50;79.80;;;;;;5073238;28;20075;-50
2022/06/21 12:31:55;;;;;;;1.77;0.98;;;22.40;77.90;;;;;;5073200;28;20052;-53
2022/06/21 12:34:40;;;;;;;2.97;1.00;;;22.60;78.40;;;;;;5073198;28;20048;-52
2022/06/21 12:37:13;;;;;;;2.55;1.20;;;22.80;77.50;;;;;;5073110;28;20041;-52
2022/06/21 12:39:42;;;;;;;3.70;1.30;;;22.90;77.50;;;;;;5073140;28;20048;-51
2022/06/21 12:42:36;;;;;;;4.05;1.20;;;22.90;77.30;;;;;;5073028;28;20380;-52
2022/06/21 12:45:34;;;;;;;3.80;1.27;;;23.40;78.40;;;;;;5073006;28;20102;-49
2022/06/21 12:48:09;;;;;;;3.28;1.35;;;23.40;78.30;;;;;;5072929;28;20066;-49
2022/06/21 12:50:56;;;;;;;3.10;1.00;;;23.60;77.90;;;;;;5072968;28;20044;-48
2022/06/21 12:53:40;;;;;;;3.95;1.25;;;24.10;76.50;;;;;;5072489;28;20052;-51
2022/06/21 12:56:33;;;;;;;5.13;1.10;;;24.40;76.50;;;;;;5072965;28;20054;-49
2022/06/21 12:59:30;;;;;;;4.97;1.25;;;24.50;76.10;;;;;;5072692;28;20483;-53
2022/06/21 13:02:23;;;;;;;4.50;1.48;;;24.30;76.10;;;;;;5072956;28;20063;-48
2022/06/21 13:05:16;;;;;;;4.22;1.23;;;24.30;73.50;;;;;;5072744;28;20102;-49
2022/06/21 13:08:39;;;;;;;3.65;1.20;;;23.70;73.70;;;;;;5072885;28;20052;-48
2022/06/21 13:11:25;;;;;;;3.58;1.10;;;23.50;75.20;;;;;;5050618;28;20037;-48
2022/06/21 13:14:15;;;;;;;6.07;1.30;;;23.30;75.00;;;;;;5033830;28;20079;-49
2022/06/21 13:17:27;;;;;;;4.05;1.20;;;23.20;73.40;;;;;;5050328;28;20403;-50
2022/06/21 13:20:20;;;;;;;4.15;1.00;;;22.90;74.20;;;;;;5050529;28;20123;-48
2022/06/21 13:23:24;;;;;;;3.00;1.10;;;22.80;74.20;;;;;;5050290;28;20140;-48
2022/06/21 13:26:02;;;;;;;4.15;1.40;;;22.80;75.30;;;;;;5050305;28;20056;-50
2022/06/21 13:28:47;;;;;;;2.25;1.33;;;23.10;77.30;;;;;;5050486;28;20057;-49
2022/06/21 13:31:24;;;;;;;3.40;1.13;;;23.00;74.60;;;;;;5054233;28;20132;-49
2022/06/21 13:33:59;;;;;;;4.68;1.05;;;23.20;75.60;;;;;;5054177;28;20045;-49
2022/06/21 13:36:28;;;;;;;4.40;0.90;;;23.50;73.90;;;;;;5054064;28;20053;-48
2022/06/21 13:39:04;;;;;;;2.88;1.00;;;23.70;75.20;;;;;;5054052;28;20079;-48
2022/06/21 13:44:33;;;;;;;;;;;24.10;72.60;;;;;;5076791;28;20059;-49
2022/06/21 13:47:03;;;;;;;3.85;1.27;;;24.20;71.80;;;;;;5074887;28;19920;-49
2022/06/21 13:49:35;;;;;;;3.13;1.10;;;24.50;72.20;;;;;;5076268;28;20082;-49
2022/06/21 13:52:24;;;;;;;5.53;1.08;;;24.70;71.10;;;;;;5075866;28;20049;-48
2022/06/21 13:55:04;;;;;;;2.20;1.10;;;25.10;74.20;;;;;;5076204;28;20414;-50
2022/06/21 13:57:49;;;;;;;1.98;1.00;;;25.30;71.40;;;;;;5075910;28;20036;-49
2022/06/21 14:00:17;;;;;;;1.88;0.77;;;25.50;72.40;;;;;;5076028;28;20119;-48
2022/06/21 14:03:13;;;;;;;4.47;1.10;;;25.00;68.90;;;;;;5076032;28;20040;-49
2022/06/21 14:06:03;;;;;;;2.22;1.25;;;24.60;68.10;;;;;;5075887;28;20115;-49